Time;durP1;ratioP1;P1;durP2;ratioP2;P2;SDS_P1;SDS_P2;PMS_P1;PMS_P2;Temp;Humidity;BMP_temperature;BMP_pressure;BME280_temperature;BME280_humidity;BME280_pressure;Samples;Min_cycle;Max_cycle;Signal;HPM_P1;HPM_P2
2024/03/05 00:02:04;;;;;;;25.70;10.00;;;;;;;8.69;61.25;99559.00;10436166;28;20142;-60
2024/03/05 00:07:07;;;;;;;23.92;10.23;;;;;;;8.77;60.96;99547.22;10435720;28;20052;-59
2024/03/05 00:12:11;;;;;;;21.25;9.57;;;;;;;8.77;60.97;99546.38;10433139;28;20094;-61
2024/03/05 00:17:13;;;;;;;27.27;10.88;;;;;;;8.71;60.93;99551.94;10433862;28;20056;-61
2024/03/05 00:22:16;;;;;;;23.50;11.13;;;;;;;8.58;61.20;99551.81;10434331;28;20139;-61
2024/03/05 00:27:18;;;;;;;26.23;10.18;;;;;;;8.60;61.21;99543.91;10434787;28;20263;-61
2024/03/05 00:32:20;;;;;;;20.65;8.00;;;;;;;8.72;61.14;99543.19;10433749;28;20048;-60
2024/03/05 00:37:22;;;;;;;22.92;9.45;;;;;;;8.75;61.03;99543.03;10434812;28;20059;-61
2024/03/05 00:42:24;;;;;;;26.38;9.80;;;;;;;8.74;60.92;99551.78;10434072;28;20052;-60
2024/03/05 00:47:28;;;;;;;31.15;10.20;;;;;;;8.76;60.89;99550.75;10430550;28;20072;-61
2024/03/05 00:52:30;;;;;;;28.73;9.80;;;;;;;8.73;60.89;99547.47;10431665;28;20477;-61
2024/03/05 00:57:38;;;;;;;25.58;9.25;;;;;;;8.66;60.92;99546.16;10433617;28;20045;-61
2024/03/05 01:02:42;;;;;;;24.10;9.50;;;;;;;8.65;60.96;99554.91;10431559;28;20614;-60
2024/03/05 01:07:44;;;;;;;23.35;10.13;;;;;;;8.53;61.14;99553.00;10431973;28;20053;-61
2024/03/05 01:12:46;;;;;;;24.00;10.88;;;;;;;8.42;61.44;99550.19;10464773;28;20052;-60
2024/03/05 01:17:49;;;;;;;21.90;10.43;;;;;;;8.50;61.42;99548.81;10432018;28;20049;-60
2024/03/05 01:22:51;;;;;;;28.67;11.05;;;;;;;8.54;61.20;99546.88;10463671;28;20051;-60
2024/03/05 01:27:54;;;;;;;21.60;9.68;;;;;;;8.62;61.14;99542.91;10432745;28;20130;-61
2024/03/05 01:32:57;;;;;;;23.77;10.18;;;;;;;8.66;61.06;99539.19;10447731;28;20041;-60
2024/03/05 01:37:59;;;;;;;22.08;9.40;;;;;;;8.59;61.12;99526.56;10463993;28;20072;-60
2024/03/05 01:43:01;;;;;;;22.50;9.90;;;;;;;8.33;62.07;99525.47;10432247;28;20136;-61
2024/03/05 01:48:04;;;;;;;23.65;10.65;;;;;;;8.31;62.02;99516.91;10432462;28;20069;-60
2024/03/05 01:53:10;;;;;;;24.95;10.45;;;;;;;8.21;62.04;99526.19;10431888;28;20053;-61
2024/03/05 01:58:17;;;;;;;26.02;9.88;;;;;;;8.28;62.09;99537.09;10430838;28;20045;-61
2024/03/05 02:03:20;;;;;;;22.85;8.75;;;;;;;8.37;61.84;99537.41;10431436;28;20534;-61
2024/03/05 02:08:22;;;;;;;25.15;9.95;;;;;;;8.14;62.23;99540.47;10430323;28;20057;-60
2024/03/05 02:13:25;;;;;;;24.52;10.23;;;;;;;8.12;61.98;99542.31;10431899;28;20157;-61
2024/03/05 02:18:27;;;;;;;27.35;10.32;;;;;;;8.14;62.07;99540.47;10428619;28;20563;-60
2024/03/05 02:23:29;;;;;;;20.08;9.75;;;;;;;8.08;61.96;99532.13;10431518;28;20053;-60
2024/03/05 02:28:31;;;;;;;21.15;10.05;;;;;;;7.97;62.10;99536.19;10429639;28;20049;-60
2024/03/05 02:33:34;;;;;;;25.67;9.63;;;;;;;7.87;62.07;99552.38;10435655;28;20568;-60
2024/03/05 02:38:38;;;;;;;23.00;10.25;;;;;;;7.74;62.29;99544.41;10438430;28;20545;-60
2024/03/05 02:43:40;;;;;;;21.25;9.48;;;;;;;7.62;62.49;99546.81;10438797;28;20053;-60
2024/03/05 02:48:43;;;;;;;26.67;9.95;;;;;;;7.53;62.55;99542.13;10434158;28;20126;-60
2024/03/05 02:53:45;;;;;;;22.30;11.52;;;;;;;7.42;62.65;99545.28;10438234;28;20613;-60
2024/03/05 02:58:47;;;;;;;21.17;9.60;;;;;;;7.30;62.74;99545.09;10437895;28;20072;-60
2024/03/05 03:03:50;;;;;;;23.20;9.70;;;;;;;7.18;62.86;99543.97;10437397;28;20084;-60
2024/03/05 03:08:52;;;;;;;25.58;10.00;;;;;;;7.12;63.20;99545.13;10437303;28;20400;-60
2024/03/05 03:13:55;;;;;;;23.30;9.95;;;;;;;7.02;63.06;99545.69;10435569;28;20772;-60
2024/03/05 03:18:58;;;;;;;23.25;9.88;;;;;;;6.94;63.15;99547.81;10437543;28;20182;-60
2024/03/05 03:24:00;;;;;;;23.60;10.23;;;;;;;6.90;63.35;99546.28;10437504;28;20045;-60
2024/03/05 03:29:02;;;;;;;22.38;8.45;;;;;;;6.80;63.33;99545.06;10437243;28;20102;-60
2024/03/05 03:34:05;;;;;;;22.05;9.23;;;;;;;6.57;63.61;99548.81;10436644;28;20118;-60
2024/03/05 03:39:10;;;;;;;25.98;10.10;;;;;;;6.51;63.62;99553.50;10436753;28;20056;-61
2024/03/05 03:44:12;;;;;;;20.15;8.80;;;;;;;6.48;63.89;99549.28;10432812;28;20575;-60
2024/03/05 03:49:16;;;;;;;28.00;10.60;;;;;;;6.54;63.84;99553.34;10432759;28;20037;-60
2024/03/05 03:54:18;;;;;;;21.55;9.48;;;;;;;6.64;63.70;99559.75;10436265;28;20048;-60
2024/03/05 03:59:20;;;;;;;23.50;9.10;;;;;;;6.67;63.59;99567.41;10435869;28;20557;-60
2024/03/05 04:04:23;;;;;;;24.50;9.35;;;;;;;6.68;63.81;99569.06;10431587;28;20056;-60
2024/03/05 04:09:25;;;;;;;19.80;9.02;;;;;;;6.74;63.73;99566.19;10435147;28;20053;-60
2024/03/05 04:14:27;;;;;;;25.05;9.25;;;;;;;6.84;63.87;99568.25;10435023;28;20048;-60
2024/03/05 04:19:30;;;;;;;18.38;8.80;;;;;;;6.98;63.81;99575.34;10433894;28;20339;-60
2024/03/05 04:24:35;;;;;;;20.35;9.60;;;;;;;7.01;63.61;99578.66;10432698;28;20069;-60
2024/03/05 04:29:41;;;;;;;22.15;9.50;;;;;;;6.98;63.26;99583.13;10435565;28;20417;-60
2024/03/05 04:34:49;;;;;;;17.05;7.95;;;;;;;7.00;63.48;99573.50;10434663;28;20076;-60
2024/03/05 04:39:52;;;;;;;20.20;10.02;;;;;;;7.08;63.56;99581.78;10434554;28;20301;-60
2024/03/05 04:44:54;;;;;;;22.15;8.82;;;;;;;7.23;63.25;99580.97;10433842;28;20053;-60
2024/03/05 04:49:57;;;;;;;18.27;8.98;;;;;;;7.17;63.18;99579.53;10429023;28;20041;-60
2024/03/05 04:55:00;;;;;;;20.80;8.75;;;;;;;6.93;63.35;99572.16;10428398;28;20140;-60
2024/03/05 05:00:02;;;;;;;23.15;8.43;;;;;;;6.97;63.48;99591.88;10429566;28;20159;-60
2024/03/05 05:05:04;;;;;;;23.08;8.95;;;;;;;6.89;63.68;99591.41;10428012;28;20087;-60
2024/03/05 05:10:08;;;;;;;19.42;8.52;;;;;;;7.01;63.63;99589.03;10444783;28;20153;-60
2024/03/05 05:15:12;;;;;;;21.05;8.68;;;;;;;7.03;63.60;99600.22;10428351;28;20045;-59
2024/03/05 05:20:15;;;;;;;21.63;8.00;;;;;;;7.08;63.73;99597.38;10428642;28;20517;-60
2024/03/05 05:25:19;;;;;;;22.38;9.40;;;;;;;7.08;63.69;99587.78;10427864;28;20441;-60
2024/03/05 05:30:23;;;;;;;22.98;9.10;;;;;;;7.15;63.63;99594.38;10427596;28;20090;-60
2024/03/05 05:35:26;;;;;;;22.00;9.88;;;;;;;7.29;63.42;99591.06;10427886;28;21127;-60
2024/03/05 05:40:28;;;;;;;27.75;10.52;;;;;;;7.34;63.22;99586.47;10427426;28;20170;-60
2024/03/05 05:45:30;;;;;;;23.95;9.68;;;;;;;7.16;63.32;99587.44;10428481;28;20041;-60
2024/03/05 05:50:32;;;;;;;18.52;8.50;;;;;;;7.26;63.63;99600.78;10426112;28;20049;-60
2024/03/05 05:55:36;;;;;;;21.30;10.43;;;;;;;7.34;63.41;99593.44;10427521;28;20069;-60
2024/03/05 06:00:39;;;;;;;21.70;8.82;;;;;;;7.40;63.39;99593.97;10427870;28;20064;-59
2024/03/05 06:05:42;;;;;;;24.00;9.57;;;;;;;7.50;63.14;99595.16;10426331;28;20080;-60
2024/03/05 06:10:45;;;;;;;28.10;10.02;;;;;;;7.55;63.03;99598.34;10434091;28;20422;-60
2024/03/05 06:15:49;;;;;;;19.58;7.90;;;;;;;7.56;63.08;99600.03;10435590;28;20052;-60
2024/03/05 06:20:51;;;;;;;20.25;8.05;;;;;;;7.55;63.18;99606.16;10435506;28;20130;-60
2024/03/05 06:25:53;;;;;;;21.83;8.50;;;;;;;7.55;63.15;99603.53;10433651;28;20076;-60
2024/03/05 06:30:56;;;;;;;19.90;8.18;;;;;;;7.50;63.15;99612.53;10435335;28;20059;-60
2024/03/05 06:35:58;;;;;;;19.73;8.45;;;;;;;7.53;63.25;99609.78;10435295;28;20080;-60
2024/03/05 06:41:00;;;;;;;23.92;10.75;;;;;;;7.55;63.10;99624.38;10434963;28;20434;-60
2024/03/05 06:46:03;;;;;;;18.90;8.93;;;;;;;7.63;63.09;99627.41;10433503;28;20502;-60
2024/03/05 06:51:16;;;;;;;17.90;8.70;;;;;;;7.66;62.83;99624.66;10434265;28;20406;-60
2024/03/05 07:01:39;;;;;;;22.73;9.10;;;;;;;7.28;63.47;99636.22;10433567;28;20052;-60
2024/03/05 07:06:42;;;;;;;23.05;9.88;;;;;;;7.43;63.31;99640.63;10434551;28;20045;-60
2024/03/05 07:11:44;;;;;;;21.95;8.65;;;;;;;7.63;63.18;99645.63;10433550;28;20608;-60
2024/03/05 07:16:46;;;;;;;19.83;8.50;;;;;;;7.76;63.12;99645.81;10432205;28;20053;-60
2024/03/05 07:21:49;;;;;;;23.55;8.68;;;;;;;7.77;63.15;99645.75;10431773;28;20045;-60
2024/03/05 07:26:51;;;;;;;16.60;7.97;;;;;;;7.67;63.28;99651.53;10433323;28;20128;-59
2024/03/05 07:32:05;;;;;;;19.60;7.95;;;;;;;7.57;63.51;99648.53;10433078;28;20382;-60
2024/03/05 07:37:08;;;;;;;21.48;8.20;;;;;;;7.53;63.63;99648.81;10431512;28;20053;-60
2024/03/05 07:42:10;;;;;;;18.25;8.23;;;;;;;7.44;63.88;99646.66;10432540;28;20048;-60
2024/03/05 07:47:12;;;;;;;21.42;8.57;;;;;;;7.51;63.73;99638.47;10430488;28;20528;-60
2024/03/05 07:52:14;;;;;;;21.15;9.05;;;;;;;7.63;63.82;99640.41;10431874;28;20044;-59
2024/03/05 07:57:16;;;;;;;28.10;8.98;;;;;;;7.73;63.83;99646.00;10433960;28;20037;-59
2024/03/05 08:02:18;;;;;;;24.80;10.25;;;;;;;7.80;63.81;99649.94;10432747;28;20080;-59
2024/03/05 08:07:21;;;;;;;22.65;8.93;;;;;;;7.80;63.77;99648.19;10436066;28;20051;-60
2024/03/05 08:12:23;;;;;;;20.23;9.32;;;;;;;7.81;63.88;99647.25;10435020;28;20197;-60
2024/03/05 08:17:25;;;;;;;24.05;9.45;;;;;;;7.95;63.86;99657.81;10434055;28;20127;-61
2024/03/05 08:22:27;;;;;;;23.63;10.07;;;;;;;8.03;63.72;99658.25;10434660;28;20139;-60
2024/03/05 08:27:29;;;;;;;17.55;9.18;;;;;;;8.10;63.74;99652.69;10434014;28;20053;-60
2024/03/05 08:32:33;;;;;;;20.15;8.90;;;;;;;8.20;63.55;99659.13;10434112;28;20393;-61
2024/03/05 08:37:35;;;;;;;26.17;8.68;;;;;;;8.19;63.33;99647.84;10434986;28;20814;-61
2024/03/05 08:42:37;;;;;;;22.67;9.88;;;;;;;8.13;63.40;99660.38;10434146;28;20076;-60
2024/03/05 08:47:42;;;;;;;20.80;8.07;;;;;;;8.11;63.74;99660.44;10434061;28;20397;-61
2024/03/05 08:52:44;;;;;;;21.25;9.30;;;;;;;8.15;63.93;99663.72;10433590;28;20076;-60
2024/03/05 08:57:46;;;;;;;24.48;9.45;;;;;;;8.08;64.06;99665.78;10433143;28;20049;-60
2024/03/05 09:02:48;;;;;;;27.77;11.15;;;;;;;8.01;64.24;99660.09;10429805;28;20087;-60
2024/03/05 09:07:50;;;;;;;24.80;11.13;;;;;;;8.12;64.14;99671.72;10429021;28;20061;-60
2024/03/05 09:12:52;;;;;;;24.80;10.18;;;;;;;8.15;64.04;99667.19;10427829;28;20045;-60
2024/03/05 09:17:54;;;;;;;21.85;9.35;;;;;;;8.27;64.14;99676.09;10428600;28;20052;-60
2024/03/05 09:22:57;;;;;;;25.40;9.00;;;;;;;8.23;64.04;99679.78;10428210;28;20049;-60
2024/03/05 09:27:59;;;;;;;26.73;10.02;;;;;;;8.23;64.22;99682.38;10427402;28;20111;-60
2024/03/05 09:33:02;;;;;;;19.50;8.35;;;;;;;8.31;64.20;99680.19;10427229;28;20104;-60
2024/03/05 09:38:04;;;;;;;23.30;9.50;;;;;;;8.36;64.20;99683.41;10428276;28;20045;-60
2024/03/05 09:43:07;;;;;;;26.23;8.70;;;;;;;8.28;64.22;99689.03;10427073;28;20326;-61
2024/03/05 09:48:11;;;;;;;21.35;8.95;;;;;;;8.29;64.24;99695.09;10428186;28;20510;-60
2024/03/05 09:53:14;;;;;;;19.98;9.32;;;;;;;8.41;64.22;99691.81;10425642;28;20138;-54
2024/03/05 09:58:32;;;;;;;23.63;10.15;;;;;;;8.48;64.03;99695.78;10427641;28;20421;-55
2024/03/05 10:03:36;;;;;;;19.48;8.25;;;;;;;8.57;63.82;99690.03;10426289;28;20041;-56
2024/03/05 10:08:38;;;;;;;25.80;10.55;;;;;;;8.67;63.73;99701.63;10424183;28;20139;-57
2024/03/05 10:13:40;;;;;;;28.92;11.05;;;;;;;8.76;63.63;99693.31;10438774;28;20378;-56
2024/03/05 10:18:43;;;;;;;24.63;10.18;;;;;;;8.89;63.61;99699.53;10427241;28;20503;-56
2024/03/05 10:23:47;;;;;;;26.63;10.85;;;;;;;8.97;63.52;99699.94;10427451;28;20044;-55
2024/03/05 10:28:51;;;;;;;24.98;9.82;;;;;;;9.15;63.52;99698.03;10426246;28;20037;-56
2024/03/05 10:33:56;;;;;;;21.13;9.88;;;;;;;9.29;63.47;99700.69;10409229;28;20045;-57
2024/03/05 10:38:59;;;;;;;23.40;9.73;;;;;;;9.50;63.22;99695.03;10425235;28;20516;-57
2024/03/05 10:44:01;;;;;;;20.75;8.70;;;;;;;9.59;63.27;99694.50;10443020;28;20412;-58
2024/03/05 10:49:05;;;;;;;19.85;8.90;;;;;;;9.82;62.85;99693.16;10426129;28;20055;-57
2024/03/05 10:54:08;;;;;;;18.75;8.35;;;;;;;9.70;62.95;99701.75;10430056;28;20130;-56
2024/03/05 11:04:22;;;;;;;19.05;8.80;;;;;;;9.23;63.44;99708.88;10431095;28;20045;-54
2024/03/05 11:09:29;;;;;;;21.23;8.38;;;;;;;9.01;63.82;99711.88;10430320;28;20484;-55
2024/03/05 11:14:35;;;;;;;15.57;7.28;;;;;;;8.98;64.07;99709.44;10427660;28;20845;-55
2024/03/05 11:19:41;;;;;;;21.58;10.30;;;;;;;8.98;64.09;99714.66;10427348;28;20033;-56
2024/03/05 11:24:43;;;;;;;19.35;8.43;;;;;;;9.09;64.28;99714.03;10431113;28;20126;-54
2024/03/05 11:29:46;;;;;;;23.58;7.97;;;;;;;9.33;64.16;99704.78;10430684;28;20616;-52
2024/03/05 11:34:53;;;;;;;15.68;7.13;;;;;;;9.59;63.90;99699.72;10429745;28;20045;-55
2024/03/05 11:40:08;;;;;;;21.42;8.20;;;;;;;9.92;63.29;99703.88;10428776;28;20782;-57
2024/03/05 11:45:51;;;;;;;15.73;7.47;;;;;;;10.09;63.03;99696.72;10460876;28;20144;-56
2024/03/05 11:50:54;;;;;;;19.13;8.30;;;;;;;10.23;62.97;99695.88;10427117;28;20736;-54
2024/03/05 11:56:08;;;;;;;17.63;7.78;;;;;;;10.38;62.36;99700.13;10430438;28;20040;-57
2024/03/05 12:01:15;;;;;;;20.58;7.30;;;;;;;10.41;62.66;99698.19;10413972;28;20055;-54
2024/03/05 12:06:17;;;;;;;18.35;7.93;;;;;;;10.40;62.78;99690.41;10430252;28;20455;-54
2024/03/05 12:11:19;;;;;;;17.92;7.78;;;;;;;10.47;62.43;99697.78;10431384;28;20064;-55
2024/03/05 12:16:22;;;;;;;16.35;7.72;;;;;;;10.52;62.52;99692.28;10428826;28;20057;-55
2024/03/05 12:21:24;;;;;;;17.38;7.90;;;;;;;10.37;62.75;99693.22;10429656;28;20053;-56
2024/03/05 12:26:29;;;;;;;17.27;7.63;;;;;;;10.37;62.75;99694.06;10441119;28;20048;-55
2024/03/05 12:31:32;;;;;;;13.32;6.95;;;;;;;10.49;62.73;99685.47;10423454;28;20102;-55
2024/03/05 12:36:35;;;;;;;18.35;7.43;;;;;;;10.76;62.06;99682.00;10427010;28;20036;-55
2024/03/05 12:41:40;;;;;;;15.90;7.15;;;;;;;10.96;61.73;99687.63;10426346;28;20171;-53
2024/03/05 12:46:45;;;;;;;13.93;7.18;;;;;;;11.16;61.36;99689.81;10428682;28;20132;-57
2024/03/05 12:51:52;;;;;;;18.42;7.32;;;;;;;11.29;60.77;99684.63;10429070;28;20527;-56
2024/03/05 12:56:55;;;;;;;12.48;6.95;;;;;;;11.18;60.89;99687.09;10427168;28;20048;-55
2024/03/05 13:01:59;;;;;;;12.65;6.47;;;;;;;11.13;60.71;99689.19;10427883;28;20182;-54
2024/03/05 13:07:05;;;;;;;14.75;6.70;;;;;;;11.17;60.67;99691.47;10427749;28;20123;-55
2024/03/05 13:12:11;;;;;;;10.82;5.18;;;;;;;11.20;60.19;99693.91;10428605;28;20053;-57
2024/03/05 13:17:15;;;;;;;11.23;5.43;;;;;;;11.24;59.71;99692.78;10424521;28;20072;-56
2024/03/05 13:22:20;;;;;;;12.07;4.97;;;;;;;11.26;59.76;99685.66;10423053;28;20049;-57
2024/03/05 13:27:24;;;;;;;10.52;5.28;;;;;;;11.36;59.46;99687.69;10426808;28;20049;-55
2024/03/05 13:32:26;;;;;;;9.73;4.32;;;;;;;11.54;58.92;99684.63;10425983;28;20041;-55
2024/03/05 13:37:28;;;;;;;10.38;4.25;;;;;;;11.43;58.67;99696.78;10422347;28;20053;-57
2024/03/05 13:42:34;;;;;;;7.70;3.97;;;;;;;11.44;58.72;99694.06;10422367;28;20412;-55
2024/03/05 13:47:39;;;;;;;9.55;4.38;;;;;;;11.50;58.36;99682.34;10404917;28;20501;-56
2024/03/05 13:52:47;;;;;;;7.78;3.78;;;;;;;11.66;57.94;99690.84;10421164;28;20066;-57
2024/03/05 13:57:51;;;;;;;7.75;3.22;;;;;;;11.88;57.54;99680.56;10423735;28;20041;-53
2024/03/05 14:02:54;;;;;;;8.73;3.20;;;;;;;12.13;56.86;99680.53;10421816;28;20099;-58
2024/03/05 14:07:58;;;;;;;4.90;2.72;;;;;;;12.30;56.26;99680.22;10422157;28;20138;-57
2024/03/05 14:13:06;;;;;;;5.43;2.70;;;;;;;12.28;55.90;99676.00;10420080;28;20052;-57
2024/03/05 14:18:09;;;;;;;5.05;2.40;;;;;;;12.12;55.75;99677.09;10420277;28;20048;-55
2024/03/05 14:23:11;;;;;;;5.18;2.88;;;;;;;11.85;54.32;99681.59;10453985;28;20532;-57
2024/03/05 14:28:14;;;;;;;4.13;1.90;;;;;;;11.75;55.31;99692.81;10429121;28;20045;-58
2024/03/05 14:33:16;;;;;;;4.35;2.22;;;;;;;11.62;55.42;99705.09;10433939;28;20238;-58
2024/03/05 14:38:20;;;;;;;3.65;1.90;;;;;;;11.21;55.63;99708.66;10433916;28;20045;-58
2024/03/05 14:43:23;;;;;;;6.95;2.65;;;;;;;10.89;56.63;99715.13;10433587;28;20072;-58
2024/03/05 14:48:25;;;;;;;4.30;2.30;;;;;;;10.31;58.25;99717.13;10427022;28;20041;-57
2024/03/05 14:53:27;;;;;;;5.80;2.60;;;;;;;10.12;59.10;99708.72;10426463;28;20068;-57
2024/03/05 14:58:31;;;;;;;8.45;3.30;;;;;;;10.00;59.42;99718.16;10425975;28;20045;-57
2024/03/05 15:03:33;;;;;;;8.15;3.25;;;;;;;10.05;59.73;99715.28;10425809;28;20063;-57
2024/03/05 15:08:35;;;;;;;10.00;4.22;;;;;;;10.14;59.80;99712.94;10431800;28;20052;-56
2024/03/05 15:13:37;;;;;;;7.75;2.80;;;;;;;10.28;59.61;99717.31;10431365;28;20179;-57
2024/03/05 15:18:40;;;;;;;5.90;2.13;;;;;;;10.39;59.73;99717.50;10447942;28;20468;-58
2024/03/05 15:23:42;;;;;;;4.43;2.25;;;;;;;10.52;59.38;99715.81;10432723;28;20131;-58
2024/03/05 15:28:45;;;;;;;3.63;2.22;;;;;;;10.63;59.39;99725.56;10430422;28;20082;-55
2024/03/05 15:33:47;;;;;;;3.92;1.95;;;;;;;10.78;58.94;99720.22;10431761;28;20438;-57
2024/03/05 15:38:49;;;;;;;2.75;1.67;;;;;;;10.73;58.64;99719.66;10430929;28;20056;-57
2024/03/05 15:43:51;;;;;;;1.98;1.23;;;;;;;10.73;58.38;99717.03;10431632;28;20152;-57
2024/03/05 15:48:53;;;;;;;4.03;1.20;;;;;;;10.86;57.71;99719.72;10430825;28;20045;-57
2024/03/05 15:53:55;;;;;;;2.30;1.05;;;;;;;11.07;57.35;99721.00;10430389;28;20049;-57
2024/03/05 16:04:20;;;;;;;;;;;;;;;10.98;56.12;99732.03;10431989;28;20659;-57
2024/03/05 16:09:42;;;;;;;4.07;1.88;;;;;;;10.94;57.23;99735.75;10425347;28;19928;-58
2024/03/05 16:14:52;;;;;;;3.60;1.60;;;;;;;10.82;57.05;99741.78;10427388;28;20045;-55
2024/03/05 16:19:56;;;;;;;4.43;2.38;;;;;;;10.87;57.00;99740.53;10426293;28;20057;-55
2024/03/05 16:24:59;;;;;;;4.28;2.47;;;;;;;10.81;56.90;99751.41;10428437;28;20454;-58
2024/03/05 16:30:03;;;;;;;4.80;2.20;;;;;;;10.56;56.63;99758.28;10441336;28;20045;-55
2024/03/05 16:35:05;;;;;;;6.07;2.50;;;;;;;10.35;57.18;99763.91;10426375;28;20465;-55
2024/03/05 16:40:14;;;;;;;4.07;2.22;;;;;;;10.23;57.34;99769.03;10428402;28;20091;-55
2024/03/05 16:45:22;;;;;;;3.72;2.13;;;;;;;10.28;57.41;99774.81;10411565;28;20079;-56
2024/03/05 16:50:26;;;;;;;6.90;2.13;;;;;;;10.19;57.18;99778.00;10427398;28;20076;-57
2024/03/05 16:55:32;;;;;;;4.20;2.20;;;;;;;10.19;57.84;99778.00;10459519;28;20041;-54
2024/03/05 17:00:41;;;;;;;4.18;2.20;;;;;;;10.09;57.49;99787.34;10428254;28;20508;-56
2024/03/05 17:05:50;;;;;;;5.60;2.42;;;;;;;9.91;57.28;99788.44;10426505;28;20143;-54
2024/03/05 17:10:55;;;;;;;5.13;2.05;;;;;;;9.66;57.56;99802.06;10426067;28;20076;-54
2024/03/05 17:16:03;;;;;;;4.63;2.17;;;;;;;9.59;57.80;99803.31;10410902;28;20049;-54
2024/03/05 17:21:07;;;;;;;4.65;2.50;;;;;;;9.50;58.11;99802.06;10426154;28;20055;-51
2024/03/05 17:26:14;;;;;;;4.75;2.45;;;;;;;9.49;58.90;99818.69;10421554;28;20052;-56
2024/03/05 17:31:18;;;;;;;5.85;3.10;;;;;;;9.42;59.47;99819.94;10420186;28;20402;-55
2024/03/05 17:36:21;;;;;;;4.75;2.55;;;;;;;9.33;59.62;99823.09;10426541;28;20459;-54
2024/03/05 17:41:24;;;;;;;5.32;2.50;;;;;;;9.27;59.30;99826.03;10421246;28;20049;-52
2024/03/05 17:46:27;;;;;;;7.80;2.33;;;;;;;9.20;59.93;99840.34;10420287;28;20190;-54
2024/03/05 17:51:30;;;;;;;5.38;2.53;;;;;;;9.25;59.96;99846.16;10422373;28;20041;-55
2024/03/05 17:56:32;;;;;;;4.80;2.38;;;;;;;9.27;60.11;99840.84;10417055;28;20055;-55
2024/03/05 18:01:35;;;;;;;5.13;2.30;;;;;;;9.29;60.12;99852.88;10419764;28;20449;-56
2024/03/05 18:06:37;;;;;;;4.32;2.25;;;;;;;9.23;60.39;99858.44;10428959;28;20033;-55
2024/03/05 18:11:40;;;;;;;8.02;3.17;;;;;;;9.23;60.45;99858.44;10430162;28;20867;-55
2024/03/05 18:16:42;;;;;;;4.13;2.47;;;;;;;9.24;60.50;99861.91;10443832;28;20365;-56
2024/03/05 18:21:44;;;;;;;6.32;3.47;;;;;;;9.21;60.67;99868.13;10431908;28;20049;-51
2024/03/05 18:26:47;;;;;;;6.40;3.65;;;;;;;9.21;60.91;99869.91;10432887;28;20049;-55
2024/03/05 18:31:51;;;;;;;4.63;2.47;;;;;;;9.16;60.91;99867.53;10434410;28;20103;-55
2024/03/05 18:36:53;;;;;;;4.80;2.50;;;;;;;9.14;61.04;99865.91;10434400;28;20033;-55
2024/03/05 18:41:55;;;;;;;7.50;2.40;;;;;;;9.11;61.27;99869.56;10433241;28;20457;-59
2024/03/05 18:46:57;;;;;;;4.88;2.40;;;;;;;9.11;61.28;99868.72;10429982;28;20132;-59
2024/03/05 18:52:03;;;;;;;4.70;2.63;;;;;;;9.06;61.36;99861.13;10430828;28;20411;-59
2024/03/05 18:57:06;;;;;;;6.95;3.15;;;;;;;9.04;61.47;99859.53;10425871;28;20048;-60
2024/03/05 19:02:08;;;;;;;5.72;3.08;;;;;;;9.00;61.18;99860.63;10426333;28;20060;-59
2024/03/05 19:07:10;;;;;;;6.57;3.05;;;;;;;8.70;61.32;99861.38;10424319;28;20049;-60
2024/03/05 19:12:13;;;;;;;8.35;3.25;;;;;;;8.65;61.70;99863.34;10408895;28;20057;-59
2024/03/05 19:17:15;;;;;;;5.72;3.33;;;;;;;8.71;61.76;99875.22;10429684;28;20060;-59
2024/03/05 19:22:17;;;;;;;12.18;6.75;;;;;;;8.70;61.97;99879.63;10428073;28;20524;-59
2024/03/05 19:27:19;;;;;;;14.65;7.60;;;;;;;8.55;62.25;99882.16;10430820;28;20052;-59
2024/03/05 19:32:22;;;;;;;8.70;3.10;;;;;;;8.47;62.27;99882.56;10432387;28;20057;-59
2024/03/05 19:37:26;;;;;;;7.93;3.58;;;;;;;8.40;62.38;99893.41;10432477;28;20410;-60
2024/03/05 19:42:28;;;;;;;7.05;3.55;;;;;;;8.41;62.13;99892.47;10430328;28;20068;-59
2024/03/05 19:47:32;;;;;;;6.97;3.75;;;;;;;8.45;62.22;99888.78;10432791;28;20128;-59
2024/03/05 19:52:35;;;;;;;9.23;3.50;;;;;;;8.61;62.08;99892.25;10434965;28;20052;-59
2024/03/05 19:57:38;;;;;;;8.63;3.85;;;;;;;8.62;62.16;99894.81;10434390;28;20045;-59
2024/03/05 20:02:42;;;;;;;9.07;4.40;;;;;;;8.61;62.32;99900.94;10433337;28;20041;-59
2024/03/05 20:07:45;;;;;;;5.97;3.65;;;;;;;8.59;62.44;99908.00;10417182;28;20060;-59
2024/03/05 20:12:49;;;;;;;6.35;3.08;;;;;;;8.59;62.50;99901.94;10434927;28;20075;-59
2024/03/05 20:17:52;;;;;;;6.93;3.40;;;;;;;8.57;62.69;99906.38;10434218;28;20239;-59
2024/03/05 20:22:59;;;;;;;6.95;3.15;;;;;;;8.58;62.79;99908.94;10433334;28;20049;-59
2024/03/05 20:28:03;;;;;;;7.80;3.67;;;;;;;8.61;62.76;99911.38;10432450;28;20053;-59
2024/03/05 20:33:06;;;;;;;5.65;3.08;;;;;;;8.62;62.79;99905.25;10416426;28;20355;-59
2024/03/05 20:38:08;;;;;;;6.30;3.33;;;;;;;8.61;62.63;99913.13;10433399;28;20519;-59
2024/03/05 20:43:11;;;;;;;6.15;2.67;;;;;;;8.58;62.87;99923.72;10433762;28;20053;-59
2024/03/05 20:48:15;;;;;;;6.32;2.80;;;;;;;8.52;63.05;99926.66;10429310;28;20476;-59
2024/03/05 20:53:19;;;;;;;5.45;2.75;;;;;;;8.52;63.02;99926.66;10462081;28;20450;-59
2024/03/05 20:58:23;;;;;;;5.50;3.08;;;;;;;8.44;63.01;99927.03;10429660;28;20516;-59
2024/03/05 21:03:30;;;;;;;4.70;3.00;;;;;;;8.49;62.98;99929.41;10427716;28;20052;-59
2024/03/05 21:08:34;;;;;;;5.95;2.95;;;;;;;8.50;62.94;99923.28;10432396;28;20197;-59
2024/03/05 21:13:41;;;;;;;5.50;2.90;;;;;;;8.52;62.98;99942.28;10432992;28;20128;-59
2024/03/05 21:18:44;;;;;;;5.78;3.13;;;;;;;8.52;62.94;99950.97;10431884;28;20045;-59
2024/03/05 21:23:48;;;;;;;5.25;2.78;;;;;;;8.60;62.77;99951.41;10430412;28;20090;-59
2024/03/05 21:28:51;;;;;;;5.05;3.03;;;;;;;8.56;62.74;99949.03;10429430;28;20056;-59
2024/03/05 21:33:55;;;;;;;8.02;3.40;;;;;;;8.38;62.97;99955.19;10422440;28;20343;-59
2024/03/05 21:38:57;;;;;;;5.65;2.90;;;;;;;8.37;63.25;99961.28;10407502;28;20045;-59
2024/03/05 21:43:59;;;;;;;7.40;4.05;;;;;;;8.26;63.34;99964.44;10426852;28;20055;-59
2024/03/05 21:49:02;;;;;;;5.93;3.15;;;;;;;8.21;63.50;99966.44;10423721;28;20060;-59
2024/03/05 21:54:07;;;;;;;7.10;2.95;;;;;;;8.26;63.56;99971.44;10424046;28;20053;-59
2024/03/05 21:59:09;;;;;;;6.78;3.13;;;;;;;8.13;63.64;99978.16;10426221;28;20068;-59
2024/03/05 22:04:12;;;;;;;4.25;2.50;;;;;;;7.92;63.73;99966.97;10443822;28;20059;-59
2024/03/05 22:09:15;;;;;;;6.47;3.30;;;;;;;7.89;63.83;99967.13;10424265;28;20063;-60
2024/03/05 22:14:18;;;;;;;6.50;2.97;;;;;;;7.92;63.97;99970.44;10422744;28;20492;-59
2024/03/05 22:19:21;;;;;;;6.90;3.65;;;;;;;7.92;63.88;99974.78;10422220;28;20151;-60
2024/03/05 22:24:23;;;;;;;5.00;2.47;;;;;;;7.94;63.84;99972.94;10422989;28;20063;-59
2024/03/05 22:29:25;;;;;;;5.63;3.15;;;;;;;7.86;63.81;99975.94;10427679;28;20049;-59
2024/03/05 22:34:30;;;;;;;6.70;3.42;;;;;;;7.73;63.79;99972.22;10429340;28;20049;-59
2024/03/05 22:39:33;;;;;;;5.47;2.83;;;;;;;7.61;63.95;99984.97;10428622;28;20048;-59
2024/03/05 22:44:36;;;;;;;6.72;2.65;;;;;;;7.31;64.32;99984.63;10428651;28;20115;-59
2024/03/05 22:49:39;;;;;;;5.25;2.88;;;;;;;7.32;64.57;99983.72;10428761;28;20055;-59
2024/03/05 22:54:41;;;;;;;5.30;3.17;;;;;;;7.16;64.69;99985.34;10431644;28;20093;-59
2024/03/05 22:59:44;;;;;;;3.95;2.50;;;;;;;7.09;65.07;99981.31;10430981;28;20505;-59
2024/03/05 23:04:46;;;;;;;4.85;2.90;;;;;;;7.03;65.18;99984.19;10434622;28;20128;-59
2024/03/05 23:09:48;;;;;;;7.13;3.17;;;;;;;6.95;65.13;99989.72;10429412;28;20497;-59
2024/03/05 23:14:50;;;;;;;4.82;3.05;;;;;;;6.78;65.31;99991.34;10431892;28;20091;-60
2024/03/05 23:19:52;;;;;;;6.00;3.20;;;;;;;6.61;65.49;99999.03;10433216;28;20098;-60
2024/03/05 23:24:54;;;;;;;5.10;2.55;;;;;;;6.52;65.54;100002.88;10431121;28;20049;-60
2024/03/05 23:29:56;;;;;;;6.45;2.97;;;;;;;6.46;65.73;100017.88;10433141;28;20126;-60
2024/03/05 23:35:01;;;;;;;8.68;3.78;;;;;;;6.42;65.84;100013.69;10432630;28;20447;-59
2024/03/05 23:40:06;;;;;;;5.88;3.30;;;;;;;6.43;65.79;100018.00;10431463;28;20040;-60
2024/03/05 23:45:09;;;;;;;17.38;3.95;;;;;;;6.49;65.68;100018.56;10414966;28;20053;-60
2024/03/05 23:50:12;;;;;;;5.05;3.03;;;;;;;6.51;65.44;100027.16;10430025;28;20045;-60